sensor_id;sensor_type;location;lat;lon;timestamp;pressure;altitude;pressure_sealevel;temperature;humidity
2036;BME280;23642;42.658;23.350;2023-04-26T00:00:28;41386.50;;;-146.31;100.00
2036;BME280;23642;42.658;23.350;2023-04-26T00:02:55;41213.72;;;-146.31;100.00
2036;BME280;23642;42.658;23.350;2023-04-26T00:05:23;41075.94;;;-146.31;100.00
2036;BME280;23642;42.658;23.350;2023-04-26T00:07:50;40825.03;;;-146.31;100.00
2036;BME280;23642;42.658;23.350;2023-04-26T00:10:17;40633.78;;;-146.31;100.00
2036;BME280;23642;42.658;23.350;2023-04-26T00:12:44;40481.59;;;-146.31;100.00
2036;BME280;23642;42.658;23.350;2023-04-26T00:15:11;40331.50;;;-146.31;100.00
2036;BME280;23642;42.658;23.350;2023-04-26T00:17:38;40269.81;;;-146.31;100.00
2036;BME280;23642;42.658;23.350;2023-04-26T00:20:06;40097.09;;;-146.31;100.00
2036;BME280;23642;42.658;23.350;2023-04-26T00:22:37;40037.47;;;-146.31;100.00
2036;BME280;23642;42.658;23.350;2023-04-26T00:25:05;39918.22;;;-146.31;100.00
2036;BME280;23642;42.658;23.350;2023-04-26T00:27:32;39823.66;;;-146.31;100.00
2036;BME280;23642;42.658;23.350;2023-04-26T00:29:58;39724.97;;;-146.31;100.00
2036;BME280;23642;42.658;23.350;2023-04-26T00:32:29;39661.25;;;-146.31;100.00
2036;BME280;23642;42.658;23.350;2023-04-26T00:34:59;39605.72;;;-146.31;100.00
2036;BME280;23642;42.658;23.350;2023-04-26T00:37:26;39544.06;;;-146.31;100.00
2036;BME280;23642;42.658;23.350;2023-04-26T00:39:54;39486.50;;;-146.31;100.00
2036;BME280;23642;42.658;23.350;2023-04-26T00:42:21;39474.16;;;-146.31;100.00
2036;BME280;23642;42.658;23.350;2023-04-26T00:44:48;39412.50;;;-146.31;100.00
2036;BME280;23642;42.658;23.350;2023-04-26T00:47:19;39332.31;;;-146.31;100.00
2036;BME280;23642;42.658;23.350;2023-04-26T00:49:46;39375.50;;;-146.31;100.00
2036;BME280;23642;42.658;23.350;2023-04-26T00:52:14;39293.28;;;-146.31;100.00
2036;BME280;23642;42.658;23.350;2023-04-26T00:54:41;39361.09;;;-146.31;100.00
2036;BME280;23642;42.658;23.350;2023-04-26T00:57:11;39305.59;;;-146.31;100.00
2036;BME280;23642;42.658;23.350;2023-04-26T00:59:38;39233.66;;;-146.31;100.00
2036;BME280;23642;42.658;23.350;2023-04-26T01:02:05;39206.94;;;-146.31;100.00
2036;BME280;23642;42.658;23.350;2023-04-26T01:04:33;39155.53;;;-146.31;100.00
2036;BME280;23642;42.658;23.350;2023-04-26T01:07:01;39141.16;;;-146.31;100.00
2036;BME280;23642;42.658;23.350;2023-04-26T01:09:30;39093.88;;;-146.31;100.00
2036;BME280;23642;42.658;23.350;2023-04-26T01:11:57;39050.72;;;-146.31;100.00
2036;BME280;23642;42.658;23.350;2023-04-26T01:14:26;39001.38;;;-146.31;100.00
2036;BME280;23642;42.658;23.350;2023-04-26T01:16:55;38943.84;;;-146.31;100.00
2036;BME280;23642;42.658;23.350;2023-04-26T01:19:22;38793.81;;;-146.31;100.00
2036;BME280;23642;42.658;23.350;2023-04-26T01:21:50;38742.41;;;-146.31;100.00
2036;BME280;23642;42.658;23.350;2023-04-26T01:24:18;38672.53;;;-146.31;100.00
2036;BME280;23642;42.658;23.350;2023-04-26T01:26:45;38656.09;;;-146.31;100.00
2036;BME280;23642;42.658;23.350;2023-04-26T01:29:17;38633.50;;;-146.31;100.00
2036;BME280;23642;42.658;23.350;2023-04-26T01:31:44;38635.53;;;-146.31;100.00
2036;BME280;23642;42.658;23.350;2023-04-26T01:34:11;38610.88;;;-146.31;100.00
2036;BME280;23642;42.658;23.350;2023-04-26T01:36:39;38604.72;;;-146.31;100.00
2036;BME280;23642;42.658;23.350;2023-04-26T01:39:06;38547.19;;;-146.31;100.00
2036;BME280;23642;42.658;23.350;2023-04-26T01:41:35;38559.50;;;-146.31;100.00
2036;BME280;23642;42.658;23.350;2023-04-26T01:44:02;38487.56;;;-146.31;100.00
2036;BME280;23642;42.658;23.350;2023-04-26T01:46:29;38370.44;;;-146.31;100.00
2036;BME280;23642;42.658;23.350;2023-04-26T01:48:55;38378.66;;;-146.31;100.00
2036;BME280;23642;42.658;23.350;2023-04-26T01:51:22;38319.06;;;-146.31;100.00
2036;BME280;23642;42.658;23.350;2023-04-26T01:53:49;38286.19;;;-146.31;100.00
2036;BME280;23642;42.658;23.350;2023-04-26T01:56:16;38253.31;;;-146.31;100.00
2036;BME280;23642;42.658;23.350;2023-04-26T01:58:45;38224.53;;;-146.31;100.00
2036;BME280;23642;42.658;23.350;2023-04-26T02:01:11;38191.66;;;-146.31;100.00
2036;BME280;23642;42.658;23.350;2023-04-26T02:03:38;38199.88;;;-146.31;100.00
2036;BME280;23642;42.658;23.350;2023-04-26T02:06:05;38090.97;;;-146.31;100.00
2036;BME280;23642;42.658;23.350;2023-04-26T02:08:32;38146.44;;;-146.31;100.00
2036;BME280;23642;42.658;23.350;2023-04-26T02:10:59;38113.56;;;-146.31;100.00
2036;BME280;23642;42.658;23.350;2023-04-26T02:13:27;38056.03;;;-146.31;100.00
2036;BME280;23642;42.658;23.350;2023-04-26T02:15:56;38041.66;;;-146.31;100.00
2036;BME280;23642;42.658;23.350;2023-04-26T02:18:23;38035.50;;;-146.31;100.00
2036;BME280;23642;42.658;23.350;2023-04-26T02:20:51;38051.94;;;-146.31;100.00
2036;BME280;23642;42.658;23.350;2023-04-26T02:23:18;38017.00;;;-146.31;100.00
2036;BME280;23642;42.658;23.350;2023-04-26T02:25:48;38047.81;;;-146.31;100.00
2036;BME280;23642;42.658;23.350;2023-04-26T02:28:15;38101.25;;;-146.31;100.00
2036;BME280;23642;42.658;23.350;2023-04-26T02:30:42;38080.69;;;-146.31;100.00
2036;BME280;23642;42.658;23.350;2023-04-26T02:33:10;38039.59;;;-146.31;100.00
2036;BME280;23642;42.658;23.350;2023-04-26T02:35:37;38010.84;;;-146.31;100.00
2036;BME280;23642;42.658;23.350;2023-04-26T02:38:04;37971.78;;;-146.31;100.00
2036;BME280;23642;42.658;23.350;2023-04-26T02:40:31;37901.94;;;-146.31;100.00
2036;BME280;23642;42.658;23.350;2023-04-26T02:42:58;37842.34;;;-146.31;100.00
2036;BME280;23642;42.658;23.350;2023-04-26T02:45:24;37803.31;;;-146.31;100.00
2036;BME280;23642;42.658;23.350;2023-04-26T02:47:51;37723.16;;;-146.31;100.00
2036;BME280;23642;42.658;23.350;2023-04-26T02:50:20;37690.31;;;-146.31;100.00
2036;BME280;23642;42.658;23.350;2023-04-26T02:52:47;37671.81;;;-146.31;100.00
2036;BME280;23642;42.658;23.350;2023-04-26T02:55:14;37673.88;;;-146.31;100.00
2036;BME280;23642;42.658;23.350;2023-04-26T02:57:41;37669.75;;;-146.31;100.00
2036;BME280;23642;42.658;23.350;2023-04-26T03:00:09;37595.78;;;-146.31;100.00
2036;BME280;23642;42.658;23.350;2023-04-26T03:02:38;37626.59;;;-146.31;100.00
2036;BME280;23642;42.658;23.350;2023-04-26T03:05:05;37509.50;;;-146.31;100.00
2036;BME280;23642;42.658;23.350;2023-04-26T03:07:35;37523.88;;;-146.31;100.00
2036;BME280;23642;42.658;23.350;2023-04-26T03:10:02;37472.53;;;-146.31;100.00
2036;BME280;23642;42.658;23.350;2023-04-26T03:12:29;37437.59;;;-146.31;100.00
2036;BME280;23642;42.658;23.350;2023-04-26T03:14:56;37341.03;;;-146.31;100.00
2036;BME280;23642;42.658;23.350;2023-04-26T03:17:23;37365.69;;;-146.31;100.00
2036;BME280;23642;42.658;23.350;2023-04-26T03:19:50;37421.16;;;-146.31;100.00
2036;BME280;23642;42.658;23.350;2023-04-26T03:22:18;37462.25;;;-146.31;100.00
2036;BME280;23642;42.658;23.350;2023-04-26T03:24:47;37534.16;;;-146.31;100.00
2036;BME280;23642;42.658;23.350;2023-04-26T03:27:14;37583.47;;;-146.31;100.00
2036;BME280;23642;42.658;23.350;2023-04-26T03:29:41;37608.13;;;-146.31;100.00
2036;BME280;23642;42.658;23.350;2023-04-26T03:32:07;37636.88;;;-146.31;100.00
2036;BME280;23642;42.658;23.350;2023-04-26T03:34:34;37560.88;;;-146.31;100.00
2036;BME280;23642;42.658;23.350;2023-04-26T03:37:01;37571.13;;;-146.31;100.00
2036;BME280;23642;42.658;23.350;2023-04-26T03:39:28;37675.91;;;-146.31;100.00
2036;BME280;23642;42.658;23.350;2023-04-26T03:41:57;37702.63;;;-146.31;100.00
2036;BME280;23642;42.658;23.350;2023-04-26T03:44:23;37760.16;;;-146.31;100.00
2036;BME280;23642;42.658;23.350;2023-04-26T03:46:50;37768.38;;;-146.31;100.00
2036;BME280;23642;42.658;23.350;2023-04-26T03:49:17;37723.16;;;-146.31;100.00
2036;BME280;23642;42.658;23.350;2023-04-26T03:51:47;37657.44;;;-146.31;100.00
2036;BME280;23642;42.658;23.350;2023-04-26T03:54:14;37626.59;;;-146.31;100.00
2036;BME280;23642;42.658;23.350;2023-04-26T03:56:41;37521.81;;;-146.31;100.00
2036;BME280;23642;42.658;23.350;2023-04-26T03:59:09;37501.28;;;-146.31;100.00
2036;BME280;23642;42.658;23.350;2023-04-26T04:01:36;37447.88;;;-146.31;100.00
2036;BME280;23642;42.658;23.350;2023-04-26T04:04:06;37521.81;;;-146.31;100.00
2036;BME280;23642;42.658;23.350;2023-04-26T04:06:34;37614.28;;;-146.31;100.00
2036;BME280;23642;42.658;23.350;2023-04-26T04:09:01;37599.91;;;-146.31;100.00
2036;BME280;23642;42.658;23.350;2023-04-26T04:11:28;37686.19;;;-146.31;100.00
2036;BME280;23642;42.658;23.350;2023-04-26T04:13:55;38047.81;;;-146.31;100.00
2036;BME280;23642;42.658;23.350;2023-04-26T04:16:23;38368.38;;;-146.31;100.00
2036;BME280;23642;42.658;23.350;2023-04-26T04:18:50;38606.78;;;-146.31;100.00
2036;BME280;23642;42.658;23.350;2023-04-26T04:21:17;38921.22;;;-146.31;100.00
2036;BME280;23642;42.658;23.350;2023-04-26T04:23:44;39525.56;;;-146.31;100.00
2036;BME280;23642;42.658;23.350;2023-04-26T04:26:11;39996.34;;;-146.31;100.00
2036;BME280;23642;42.658;23.350;2023-04-26T04:28:38;41419.41;;;-146.31;100.00
2036;BME280;23642;42.658;23.350;2023-04-26T04:31:05;42100.31;;;-146.31;100.00
2036;BME280;23642;42.658;23.350;2023-04-26T04:33:35;43353.44;;;-146.31;100.00
2036;BME280;23642;42.658;23.350;2023-04-26T04:36:03;43721.84;;;-146.31;100.00
2036;BME280;23642;42.658;23.350;2023-04-26T04:38:32;43966.78;;;-146.31;100.00
2036;BME280;23642;42.658;23.350;2023-04-26T04:41:00;45144.44;;;-146.31;100.00
2036;BME280;23642;42.658;23.350;2023-04-26T04:43:27;45486.25;;;-146.31;100.00
2036;BME280;23642;42.658;23.350;2023-04-26T04:45:59;45296.81;;;-146.31;100.00
2036;BME280;23642;42.658;23.350;2023-04-26T04:48:26;45667.50;;;-146.31;100.00
2036;BME280;23642;42.658;23.350;2023-04-26T04:50:55;46775.66;;;-146.31;100.00
2036;BME280;23642;42.658;23.350;2023-04-26T04:53:22;46948.72;;;-146.31;100.00
2036;BME280;23642;42.658;23.350;2023-04-26T04:55:49;46977.56;;;-146.31;100.00
2036;BME280;23642;42.658;23.350;2023-04-26T04:58:16;47515.34;;;-146.31;98.30
2036;BME280;23642;42.658;23.350;2023-04-26T05:00:44;47937.81;;;-146.31;97.18
2036;BME280;23642;42.658;23.350;2023-04-26T05:03:12;47929.56;;;-146.31;97.76
2036;BME280;23642;42.658;23.350;2023-04-26T05:05:39;47702.88;;;-146.31;98.94
2036;BME280;23642;42.658;23.350;2023-04-26T05:08:07;47647.22;;;-146.31;99.30
2036;BME280;23642;42.658;23.350;2023-04-26T05:10:34;47935.75;;;-146.31;97.79
2036;BME280;23642;42.658;23.350;2023-04-26T05:13:02;47979.03;;;-146.31;97.13
2036;BME280;23642;42.658;23.350;2023-04-26T05:15:30;48090.31;;;-146.31;97.16
2036;BME280;23642;42.658;23.350;2023-04-26T05:17:57;48220.16;;;-146.31;96.71
2036;BME280;23642;42.658;23.350;2023-04-26T05:20:25;48119.16;;;-146.31;97.63
2036;BME280;23642;42.658;23.350;2023-04-26T05:22:52;48168.63;;;-146.31;96.86
2036;BME280;23642;42.658;23.350;2023-04-26T05:25:20;48218.09;;;-146.31;96.85
2036;BME280;23642;42.658;23.350;2023-04-26T05:27:47;48267.56;;;-146.31;96.28
2036;BME280;23642;42.658;23.350;2023-04-26T05:30:14;48529.31;;;-146.31;94.64
2036;BME280;23642;42.658;23.350;2023-04-26T05:32:41;48667.44;;;-146.31;94.55
2036;BME280;23642;42.658;23.350;2023-04-26T05:35:08;48811.72;;;-146.31;92.85
2036;BME280;23642;42.658;23.350;2023-04-26T05:37:35;49069.41;;;-146.31;90.66
2036;BME280;23642;42.658;23.350;2023-04-26T05:40:05;49211.66;;;-146.31;90.62
2036;BME280;23642;42.658;23.350;2023-04-26T05:42:35;49372.47;;;-146.31;89.59
2036;BME280;23642;42.658;23.350;2023-04-26T05:45:03;49659.06;;;-146.31;86.71
2036;BME280;23642;42.658;23.350;2023-04-26T05:47:30;49828.13;;;-146.31;85.49
2036;BME280;23642;42.658;23.350;2023-04-26T05:49:57;49995.16;;;-146.31;84.71
2036;BME280;23642;42.658;23.350;2023-04-26T05:52:24;50096.22;;;-146.31;84.91
2036;BME280;23642;42.658;23.350;2023-04-26T05:54:51;50242.63;;;-146.31;84.84
2036;BME280;23642;42.658;23.350;2023-04-26T05:57:20;50160.13;;;-146.31;86.19
2036;BME280;23642;42.658;23.350;2023-04-26T05:59:48;50234.38;;;-146.31;83.89
2036;BME280;23642;42.658;23.350;2023-04-26T06:02:15;50327.19;;;-146.31;83.84
2036;BME280;23642;42.658;23.350;2023-04-26T06:04:43;50384.94;;;-146.31;84.15
2036;BME280;23642;42.658;23.350;2023-04-26T06:07:10;50457.13;;;-146.31;82.68
2036;BME280;23642;42.658;23.350;2023-04-26T06:09:37;50440.63;;;-146.31;83.12
2036;BME280;23642;42.658;23.350;2023-04-26T06:12:04;50539.63;;;-146.31;82.89
2036;BME280;23642;42.658;23.350;2023-04-26T06:14:31;50436.50;;;-146.31;85.04
2036;BME280;23642;42.658;23.350;2023-04-26T06:17:00;50465.38;;;-146.31;84.42
2036;BME280;23642;42.658;23.350;2023-04-26T06:19:27;50514.88;;;-146.31;83.73
2036;BME280;23642;42.658;23.350;2023-04-26T06:21:54;50521.06;;;-146.31;83.62
2036;BME280;23642;42.658;23.350;2023-04-26T06:24:22;50615.94;;;-146.31;82.57
2036;BME280;23642;42.658;23.350;2023-04-26T06:26:55;50704.63;;;-146.31;80.59
2036;BME280;23642;42.658;23.350;2023-04-26T06:29:22;50737.63;;;-146.31;81.00
2036;BME280;23642;42.658;23.350;2023-04-26T06:31:50;50762.38;;;-146.31;79.31
2036;BME280;23642;42.658;23.350;2023-04-26T06:34:21;50774.75;;;-146.31;80.47
2036;BME280;23642;42.658;23.350;2023-04-26T06:37:06;50867.56;;;-146.31;82.72
2036;BME280;23642;42.658;23.350;2023-04-26T06:39:34;50795.38;;;-146.31;81.97
2036;BME280;23642;42.658;23.350;2023-04-26T06:42:02;50844.88;;;-146.31;82.56
2036;BME280;23642;42.658;23.350;2023-04-26T06:44:37;51022.25;;;-146.31;80.22
2036;BME280;23642;42.658;23.350;2023-04-26T06:47:07;51110.97;;;-146.31;79.11
2036;BME280;23642;42.658;23.350;2023-04-26T06:49:38;51284.25;;;-146.31;76.51
2036;BME280;23642;42.658;23.350;2023-04-26T06:52:05;51358.50;;;-146.31;77.82
2036;BME280;23642;42.658;23.350;2023-04-26T06:54:36;51325.50;;;-146.31;77.65
2036;BME280;23642;42.658;23.350;2023-04-26T06:57:18;51377.06;;;-146.31;77.22
2036;BME280;23642;42.658;23.350;2023-04-26T06:59:50;51408.00;;;-146.31;77.61
2036;BME280;23642;42.658;23.350;2023-04-26T07:02:31;51449.28;;;-146.31;76.60
2036;BME280;23642;42.658;23.350;2023-04-26T07:11:49;51455.47;;;-146.31;77.65
2036;BME280;23642;42.658;23.350;2023-04-26T07:14:21;51513.22;;;-146.31;77.23
2036;BME280;23642;42.658;23.350;2023-04-26T07:17:06;51527.66;;;-146.31;77.67
2036;BME280;23642;42.658;23.350;2023-04-26T07:19:33;51509.09;;;-146.31;78.27
2036;BME280;23642;42.658;23.350;2023-04-26T07:22:00;51480.22;;;-146.31;78.67
2036;BME280;23642;42.658;23.350;2023-04-26T07:24:28;51478.16;;;-146.31;77.20
2036;BME280;23642;42.658;23.350;2023-04-26T07:26:57;51502.91;;;-146.31;76.35
2036;BME280;23642;42.658;23.350;2023-04-26T07:29:25;51604.00;;;-146.31;76.44
2036;BME280;23642;42.658;23.350;2023-04-26T07:31:52;51577.19;;;-146.31;75.27
2036;BME280;23642;42.658;23.350;2023-04-26T07:34:18;51593.69;;;-146.31;73.33
2036;BME280;23642;42.658;23.350;2023-04-26T07:36:49;52014.59;;;-146.31;71.03
2036;BME280;23642;42.658;23.350;2023-04-26T07:39:19;51950.63;;;-146.31;71.63
2036;BME280;23642;42.658;23.350;2023-04-26T07:42:06;52064.09;;;-146.31;69.73
2036;BME280;23642;42.658;23.350;2023-04-26T07:44:33;52148.72;;;-146.31;69.57
2036;BME280;23642;42.658;23.350;2023-04-26T07:47:00;52099.19;;;-146.31;68.09
2036;BME280;23642;42.658;23.350;2023-04-26T07:49:45;52253.94;;;-146.31;66.56
2036;BME280;23642;42.658;23.350;2023-04-26T07:52:14;52355.06;;;-146.31;68.58
2036;BME280;23642;42.658;23.350;2023-04-26T07:54:44;52359.19;;;-146.31;68.38
2036;BME280;23642;42.658;23.350;2023-04-26T07:57:15;52419.03;;;-146.31;67.78
2036;BME280;23642;42.658;23.350;2023-04-26T08:00:05;52433.47;;;-146.31;67.14
2036;BME280;23642;42.658;23.350;2023-04-26T08:02:34;52524.28;;;-146.31;64.40
2036;BME280;23642;42.658;23.350;2023-04-26T08:05:02;52555.22;;;-146.31;61.50
2036;BME280;23642;42.658;23.350;2023-04-26T08:07:35;52569.69;;;-146.31;61.42
2036;BME280;23642;42.658;23.350;2023-04-26T08:10:02;52619.19;;;-146.31;60.12
2036;BME280;23642;42.658;23.350;2023-04-26T08:12:33;52695.56;;;-146.31;61.71
2036;BME280;23642;42.658;23.350;2023-04-26T08:15:01;52705.88;;;-146.31;61.78
2036;BME280;23642;42.658;23.350;2023-04-26T08:17:29;52763.66;;;-146.31;61.88
2036;BME280;23642;42.658;23.350;2023-04-26T08:19:56;52637.78;;;-146.31;61.95
2036;BME280;23642;42.658;23.350;2023-04-26T08:22:23;52573.81;;;-146.31;60.73
2036;BME280;23642;42.658;23.350;2023-04-26T08:24:54;52677.00;;;-146.31;59.97
2036;BME280;23642;42.658;23.350;2023-04-26T08:27:21;52695.56;;;-146.31;60.93
2036;BME280;23642;42.658;23.350;2023-04-26T08:29:49;52561.41;;;-146.31;59.50
2036;BME280;23642;42.658;23.350;2023-04-26T08:32:18;52606.81;;;-146.31;58.86
2036;BME280;23642;42.658;23.350;2023-04-26T08:34:45;52679.06;;;-146.31;58.12
2036;BME280;23642;42.658;23.350;2023-04-26T08:37:32;52629.53;;;-146.31;58.58
2036;BME280;23642;42.658;23.350;2023-04-26T08:40:00;52606.81;;;-146.31;58.53
2036;BME280;23642;42.658;23.350;2023-04-26T08:42:28;52730.66;;;-146.31;58.52
2036;BME280;23642;42.658;23.350;2023-04-26T08:45:05;52656.34;;;-146.31;57.98
2036;BME280;23642;42.658;23.350;2023-04-26T08:47:43;52728.59;;;-146.31;57.52
2036;BME280;23642;42.658;23.350;2023-04-26T08:50:15;52650.16;;;-146.31;56.50
2036;BME280;23642;42.658;23.350;2023-04-26T08:52:47;52730.66;;;-146.31;56.77
2036;BME280;23642;42.658;23.350;2023-04-26T08:55:28;52769.84;;;-146.31;56.79
2036;BME280;23642;42.658;23.350;2023-04-26T08:57:59;52759.53;;;-146.31;55.93
2036;BME280;23642;42.658;23.350;2023-04-26T09:00:28;52792.56;;;-146.31;56.21
2036;BME280;23642;42.658;23.350;2023-04-26T09:02:57;52769.84;;;-146.31;56.15
2036;BME280;23642;42.658;23.350;2023-04-26T09:05:28;52868.94;;;-146.31;55.74
2036;BME280;23642;42.658;23.350;2023-04-26T09:08:22;52937.03;;;-146.31;55.30
2036;BME280;23642;42.658;23.350;2023-04-26T09:11:08;52959.72;;;-146.31;56.58
2036;BME280;23642;42.658;23.350;2023-04-26T09:13:36;52928.78;;;-146.31;55.93
2036;BME280;23642;42.658;23.350;2023-04-26T09:16:13;53017.53;;;-146.31;54.01
2036;BME280;23642;42.658;23.350;2023-04-26T09:18:48;53005.16;;;-146.31;54.10
2036;BME280;23642;42.658;23.350;2023-04-26T09:21:50;52972.13;;;-146.31;53.46
2036;BME280;23642;42.658;23.350;2023-04-26T09:24:17;53007.22;;;-146.31;53.83
2036;BME280;23642;42.658;23.350;2023-04-26T09:27:00;52968.00;;;-146.31;53.73
2036;BME280;23642;42.658;23.350;2023-04-26T09:29:42;53034.03;;;-146.31;54.12
2036;BME280;23642;42.658;23.350;2023-04-26T09:32:26;53110.41;;;-146.31;54.11
2036;BME280;23642;42.658;23.350;2023-04-26T09:35:03;53073.25;;;-146.31;54.64
2036;BME280;23642;42.658;23.350;2023-04-26T09:37:32;53102.16;;;-146.31;54.18
2036;BME280;23642;42.658;23.350;2023-04-26T09:39:59;53069.13;;;-146.31;53.59
2036;BME280;23642;42.658;23.350;2023-04-26T09:42:26;53180.59;;;-146.31;53.98
2036;BME280;23642;42.658;23.350;2023-04-26T09:45:04;53155.81;;;-146.31;53.28
2036;BME280;23642;42.658;23.350;2023-04-26T09:47:50;53180.59;;;-146.31;52.76
2036;BME280;23642;42.658;23.350;2023-04-26T09:50:34;53199.16;;;-146.31;53.34
2036;BME280;23642;42.658;23.350;2023-04-26T09:53:26;53184.72;;;-146.31;53.67
2036;BME280;23642;42.658;23.350;2023-04-26T09:56:12;53192.97;;;-146.31;53.78
2036;BME280;23642;42.658;23.350;2023-04-26T09:58:59;53174.38;;;-146.31;52.37
2036;BME280;23642;42.658;23.350;2023-04-26T10:01:30;53081.50;;;-146.31;52.56
2036;BME280;23642;42.658;23.350;2023-04-26T10:04:02;53141.38;;;-146.31;51.05
2036;BME280;23642;42.658;23.350;2023-04-26T10:06:35;53190.91;;;-146.31;50.52
2036;BME280;23642;42.658;23.350;2023-04-26T10:09:15;53219.81;;;-146.31;49.56
2036;BME280;23642;42.658;23.350;2023-04-26T10:12:03;53279.66;;;-146.31;49.02
2036;BME280;23642;42.658;23.350;2023-04-26T10:14:37;53362.22;;;-146.31;49.66
2036;BME280;23642;42.658;23.350;2023-04-26T10:17:04;53397.31;;;-146.31;49.24
2036;BME280;23642;42.658;23.350;2023-04-26T10:19:35;53481.94;;;-146.31;47.94
2036;BME280;23642;42.658;23.350;2023-04-26T10:22:04;53498.47;;;-146.31;48.68
2036;BME280;23642;42.658;23.350;2023-04-26T10:24:42;53591.34;;;-146.31;47.78
2036;BME280;23642;42.658;23.350;2023-04-26T10:27:26;53640.91;;;-146.31;48.12
2036;BME280;23642;42.658;23.350;2023-04-26T10:30:31;53653.28;;;-146.31;48.31
2036;BME280;23642;42.658;23.350;2023-04-26T10:33:16;53669.81;;;-146.31;48.90
2036;BME280;23642;42.658;23.350;2023-04-26T10:36:08;53692.50;;;-146.31;48.42
2036;BME280;23642;42.658;23.350;2023-04-26T10:38:41;53667.75;;;-146.31;48.00
2036;BME280;23642;42.658;23.350;2023-04-26T10:44:39;53764.75;;;-146.31;48.05
2036;BME280;23642;42.658;23.350;2023-04-26T10:47:27;53787.47;;;-146.31;46.31
2036;BME280;23642;42.658;23.350;2023-04-26T10:50:05;53735.88;;;-146.31;46.49
2036;BME280;23642;42.658;23.350;2023-04-26T11:13:17;54377.94;;;-146.31;45.66
2036;BME280;23642;42.658;23.350;2023-04-26T11:16:17;54435.75;;;-146.31;45.68
2036;BME280;23642;42.658;23.350;2023-04-26T11:19:27;54357.31;;;-146.31;46.28
2036;BME280;23642;42.658;23.350;2023-04-26T11:22:00;54357.31;;;-146.31;46.07
2036;BME280;23642;42.658;23.350;2023-04-26T11:25:05;54365.56;;;-146.31;45.70
2036;BME280;23642;42.658;23.350;2023-04-26T11:28:15;54377.94;;;-146.31;45.43
2036;BME280;23642;42.658;23.350;2023-04-26T11:31:28;54470.88;;;-146.31;44.28
2036;BME280;23642;42.658;23.350;2023-04-26T11:34:30;54433.69;;;-146.31;44.09
2036;BME280;23642;42.658;23.350;2023-04-26T11:37:07;54508.03;;;-146.31;43.44
2036;BME280;23642;42.658;23.350;2023-04-26T11:40:34;54576.19;;;-146.31;43.53
2036;BME280;23642;42.658;23.350;2023-04-26T11:53:27;54683.56;;;-146.31;41.88
2036;BME280;23642;42.658;23.350;2023-04-26T11:56:16;54735.19;;;-146.31;42.84
2036;BME280;23642;42.658;23.350;2023-04-26T11:59:22;54735.19;;;-146.31;42.95
2036;BME280;23642;42.658;23.350;2023-04-26T12:02:10;54753.75;;;-146.31;42.72
2036;BME280;23642;42.658;23.350;2023-04-26T12:05:04;54811.59;;;-146.31;41.99
2036;BME280;23642;42.658;23.350;2023-04-26T12:38:28;54980.94;;;-146.31;44.41
2036;BME280;23642;42.658;23.350;2023-04-26T12:41:17;54892.13;;;-146.31;43.76
2036;BME280;23642;42.658;23.350;2023-04-26T12:44:15;54900.38;;;-146.31;43.53
2036;BME280;23642;42.658;23.350;2023-04-26T12:50:15;54995.38;;;-146.31;43.89
2036;BME280;23642;42.658;23.350;2023-04-26T12:52:45;54960.28;;;-146.31;43.74
2036;BME280;23642;42.658;23.350;2023-04-26T12:56:09;54910.72;;;-146.31;43.46
2036;BME280;23642;42.658;23.350;2023-04-26T12:59:00;54914.84;;;-146.31;45.24
2036;BME280;23642;42.658;23.350;2023-04-26T13:02:03;55011.91;;;-146.31;44.80
2036;BME280;23642;42.658;23.350;2023-04-26T13:04:57;55061.47;;;-146.31;45.06
2036;BME280;23642;42.658;23.350;2023-04-26T13:07:46;55003.63;;;-146.31;44.79
2036;BME280;23642;42.658;23.350;2023-04-26T13:13:33;55032.56;;;-146.31;48.21
2036;BME280;23642;42.658;23.350;2023-04-26T13:19:08;55061.47;;;-146.31;48.69
2036;BME280;23642;42.658;23.350;2023-04-26T13:21:46;55013.97;;;-146.31;48.05
2036;BME280;23642;42.658;23.350;2023-04-26T13:24:20;55022.22;;;-146.31;48.28
2036;BME280;23642;42.658;23.350;2023-04-26T13:26:52;54968.53;;;-146.31;48.68
2036;BME280;23642;42.658;23.350;2023-04-26T13:29:34;55044.94;;;-146.31;48.25
2036;BME280;23642;42.658;23.350;2023-04-26T13:32:04;55007.78;;;-146.31;48.53
2036;BME280;23642;42.658;23.350;2023-04-26T13:34:37;55042.88;;;-146.31;48.39
2036;BME280;23642;42.658;23.350;2023-04-26T13:37:04;55009.84;;;-146.31;47.84
2036;BME280;23642;42.658;23.350;2023-04-26T13:39:47;55038.75;;;-146.31;48.76
2036;BME280;23642;42.658;23.350;2023-04-26T13:42:20;55026.34;;;-146.31;48.78
2036;BME280;23642;42.658;23.350;2023-04-26T13:45:07;55047.00;;;-146.31;49.76
2036;BME280;23642;42.658;23.350;2023-04-26T13:51:44;55020.16;;;-146.31;48.56
2036;BME280;23642;42.658;23.350;2023-04-26T13:57:24;55042.88;;;-146.31;48.46
2036;BME280;23642;42.658;23.350;2023-04-26T13:59:57;55030.50;;;-146.31;47.97
2036;BME280;23642;42.658;23.350;2023-04-26T14:09:37;55067.66;;;-146.31;48.51
2036;BME280;23642;42.658;23.350;2023-04-26T14:12:26;55067.66;;;-146.31;50.13
2036;BME280;23642;42.658;23.350;2023-04-26T14:40:45;55084.19;;;-146.31;51.49
2036;BME280;23642;42.658;23.350;2023-04-26T14:43:48;55073.84;;;-146.31;51.92
2036;BME280;23642;42.658;23.350;2023-04-26T14:46:59;55082.13;;;-146.31;53.68
2036;BME280;23642;42.658;23.350;2023-04-26T14:52:55;55113.09;;;-146.31;53.62
2036;BME280;23642;42.658;23.350;2023-04-26T14:55:42;55090.38;;;-146.31;53.41
2036;BME280;23642;42.658;23.350;2023-04-26T14:58:19;55092.44;;;-146.31;53.67
2036;BME280;23642;42.658;23.350;2023-04-26T15:03:26;55063.53;;;-146.31;54.28
2036;BME280;23642;42.658;23.350;2023-04-26T15:04:34;55073.84;;;-146.31;54.46
2036;BME280;23642;42.658;23.350;2023-04-26T15:07:45;55044.94;;;-146.31;55.11
2036;BME280;23642;42.658;23.350;2023-04-26T15:13:55;55059.41;;;-146.31;55.33